Terminal Aerodrome Forecast
Issued by NWS Wilmington, OH

Current Version | Previous Version | Graphics & Text | Print | Product List | Glossary On
Versions: 1 2 3 4 5 6 7 8 9 10 11 12 13 14 15
830
FTUS41 KILN 181136
TAFDAY
TAF
KDAY 181136Z 1812/1912 12007KT P6SM BKN060
     FM182100 15010KT P6SM VCSH BKN045
     FM182300 26015G25KT P6SM -SHRA OVC025
     FM190300 29016G26KT P6SM VCSH OVC011
     FM190700 31015G25KT P6SM OVC008=

USA.gov is the U.S. government's official web portal to all federal, state and local government web resources and services.